createdAt,value
2019-04-26T00:00:59.082Z,18.31
2019-04-26T00:03:36.282Z,18.21
2019-04-26T00:06:08.988Z,18.22
2019-04-26T00:08:41.589Z,17.86
2019-04-26T00:11:44.597Z,17.68
2019-04-26T00:14:40.403Z,17.92
2019-04-26T00:17:15.506Z,18.18
2019-04-26T00:19:46.804Z,18.11
2019-04-26T00:22:19.090Z,17.71
2019-04-26T00:24:50.464Z,17.89
2019-04-26T00:27:21.592Z,17.81
2019-04-26T00:29:52.776Z,17.84
2019-04-26T00:32:23.805Z,17.65
2019-04-26T00:34:54.824Z,17.66
2019-04-26T00:37:25.844Z,17.77
2019-04-26T00:39:57.296Z,17.77
2019-04-26T00:42:28.677Z,17.71
2019-04-26T00:44:59.761Z,17.23
2019-04-26T00:47:31.552Z,17.18
2019-04-26T00:50:03.547Z,17.56
2019-04-26T00:52:35.096Z,17.13
2019-04-26T00:55:06.554Z,17.06
2019-04-26T00:57:38.024Z,17.41
2019-04-26T01:00:11.997Z,16.79
2019-04-26T01:02:49.715Z,16.87
2019-04-26T01:05:20.971Z,16.87
2019-04-26T01:07:54.143Z,16.89
2019-04-26T01:10:25.880Z,16.95
2019-04-26T01:12:56.880Z,17.00
2019-04-26T01:15:27.870Z,17.06
2019-04-26T01:17:58.853Z,16.77
2019-04-26T01:20:33.092Z,16.92
2019-04-26T01:23:06.816Z,17.16
2019-04-26T01:26:21.142Z,16.77
2019-04-26T01:29:06.149Z,16.96
2019-04-26T01:31:45.829Z,16.94
2019-04-26T01:37:06.364Z,16.44
2019-04-26T01:39:39.838Z,16.60
2019-04-26T01:42:22.228Z,16.43
2019-04-26T01:45:15.479Z,16.67
2019-04-26T01:47:47.915Z,14.41
2019-04-26T01:50:22.456Z,14.02
2019-04-26T01:52:57.088Z,14.45
2019-04-26T01:55:31.346Z,15.08
2019-04-26T01:58:06.949Z,15.52
2019-04-26T02:01:06.159Z,15.10
2019-04-26T02:03:37.325Z,15.37
2019-04-26T02:06:08.729Z,16.01
2019-04-26T02:08:39.757Z,15.94
2019-04-26T02:11:11.082Z,16.01
2019-04-26T02:13:42.431Z,15.80
2019-04-26T02:16:13.465Z,15.73
2019-04-26T02:18:44.818Z,16.06
2019-04-26T02:21:24.614Z,15.96
2019-04-26T02:24:14.520Z,15.72
2019-04-26T02:26:48.405Z,15.94
2019-04-26T02:29:26.820Z,16.12
2019-04-26T02:32:05.580Z,15.98
2019-04-26T02:34:38.541Z,16.20
2019-04-26T02:37:12.386Z,16.50
2019-04-26T02:39:43.959Z,16.34
2019-04-26T02:42:41.403Z,15.98
2019-04-26T02:46:13.264Z,15.79
2019-04-26T02:49:09.848Z,15.53
2019-04-26T02:51:50.958Z,15.19
2019-04-26T02:54:47.423Z,15.11
2019-04-26T02:57:34.362Z,15.60
2019-04-26T03:00:11.496Z,15.69
2019-04-26T03:02:42.945Z,15.63
2019-04-26T03:05:14.341Z,15.54
2019-04-26T03:08:03.322Z,14.91
2019-04-26T03:10:47.265Z,14.69
2019-04-26T03:13:32.944Z,14.85
2019-04-26T03:16:18.329Z,14.97
2019-04-26T03:19:16.771Z,14.20
2019-04-26T03:22:36.626Z,14.65
2019-04-26T03:25:35.173Z,14.99
2019-04-26T03:28:19.516Z,14.64
2019-04-26T03:31:07.327Z,14.98
2019-04-26T03:34:19.161Z,14.60
2019-04-26T03:37:53.712Z,14.38
2019-04-26T03:40:52.649Z,14.32
2019-04-26T03:44:05.386Z,13.86
2019-04-26T03:46:49.740Z,13.90
2019-04-26T03:50:00.937Z,13.78
2019-04-26T03:53:07.449Z,13.85
2019-04-26T03:56:45.567Z,13.54
2019-04-26T03:59:49.811Z,13.04
2019-04-26T04:02:59.002Z,13.31
2019-04-26T04:05:45.578Z,13.22
2019-04-26T04:08:24.202Z,13.72
2019-04-26T04:11:01.915Z,13.67
2019-04-26T04:14:00.420Z,13.37
2019-04-26T04:17:16.856Z,13.27
2019-04-26T04:20:38.316Z,12.65
2019-04-26T04:23:55.971Z,13.12
2019-04-26T04:27:07.531Z,12.83
2019-04-26T04:30:05.687Z,12.80
2019-04-26T04:33:11.621Z,12.33
2019-04-26T04:35:49.672Z,12.82
2019-04-26T04:39:12.205Z,12.65
2019-04-26T04:42:20.305Z,12.96
2019-04-26T04:45:59.230Z,12.49
2019-04-26T04:49:10.616Z,13.06
2019-04-26T04:52:13.400Z,13.19
2019-04-26T04:55:05.081Z,13.34
2019-04-26T04:57:52.576Z,13.41
2019-04-26T05:01:22.632Z,13.75
2019-04-26T05:04:06.539Z,13.89
2019-04-26T05:07:25.328Z,13.63
2019-04-26T05:10:12.838Z,13.95
2019-04-26T05:13:23.150Z,13.54
2019-04-26T05:16:33.359Z,13.71
2019-04-26T05:19:39.367Z,12.95
2019-04-26T05:23:03.611Z,13.45
2019-04-26T05:26:29.400Z,12.67
2019-04-26T05:30:25.440Z,13.61
2019-04-26T05:33:46.131Z,13.56
2019-04-26T05:36:59.491Z,12.81
2019-04-26T05:39:49.197Z,13.07
2019-04-26T05:43:28.424Z,13.60
2019-04-26T05:46:35.162Z,13.12
2019-04-26T05:49:42.455Z,12.62
2019-04-26T05:53:12.142Z,13.39
2019-04-26T05:56:43.363Z,12.37
2019-04-26T05:59:47.930Z,13.01
2019-04-26T06:03:06.872Z,12.67
2019-04-26T06:06:08.677Z,13.46
2019-04-26T06:09:33.366Z,13.45
2019-04-26T06:12:30.393Z,13.12
2019-04-26T06:15:43.601Z,13.01
2019-04-26T06:18:59.717Z,13.42
2019-04-26T06:22:29.181Z,13.16
2019-04-26T06:25:29.493Z,12.42
2019-04-26T06:28:32.155Z,13.41
2019-04-26T06:31:20.519Z,12.88
2019-04-26T06:34:16.232Z,13.38
2019-04-26T06:37:14.117Z,13.28
2019-04-26T06:40:06.448Z,13.88
2019-04-26T06:43:11.187Z,14.00
2019-04-26T06:46:21.475Z,14.21
2019-04-26T06:49:35.065Z,13.94
2019-04-26T06:52:11.736Z,14.27
2019-04-26T06:55:08.483Z,14.33
2019-04-26T06:59:03.478Z,14.54
2019-04-26T07:01:54.546Z,14.31
2019-04-26T07:05:05.588Z,14.30
2019-04-26T07:08:03.298Z,14.47
2019-04-26T07:11:11.736Z,15.04
2019-04-26T07:14:55.409Z,14.75
2019-04-26T07:17:45.152Z,16.81
2019-04-26T07:20:43.127Z,17.04
2019-04-26T07:24:18.000Z,18.38
2019-04-26T07:27:32.270Z,16.94
2019-04-26T07:30:42.631Z,17.30
2019-04-26T07:34:14.127Z,16.74
2019-04-26T07:37:52.690Z,16.74
2019-04-26T07:41:29.011Z,15.78
2019-04-26T07:44:25.506Z,14.81
2019-04-26T07:48:31.041Z,15.03
2019-04-26T07:51:59.629Z,15.08
2019-04-26T07:54:54.163Z,15.19
2019-04-26T07:58:19.847Z,14.97
2019-04-26T08:01:11.944Z,15.11
2019-04-26T08:03:56.840Z,15.46
2019-04-26T08:06:57.257Z,15.79
2019-04-26T08:09:31.689Z,16.00
2019-04-26T08:12:08.417Z,16.87
2019-04-26T08:15:15.670Z,16.45
2019-04-26T08:18:02.306Z,16.68
2019-04-26T08:20:43.810Z,16.30
2019-04-26T08:23:39.177Z,16.14
2019-04-26T08:26:01.345Z,15.32
2019-04-26T08:28:36.234Z,14.71
2019-04-26T08:31:11.461Z,15.49
2019-04-26T08:33:49.814Z,15.41
2019-04-26T08:36:27.146Z,15.35
2019-04-26T08:38:58.407Z,15.55
2019-04-26T08:41:29.850Z,15.27
2019-04-26T08:44:11.276Z,15.31
2019-04-26T08:46:59.387Z,15.17
2019-04-26T08:49:56.111Z,15.44
2019-04-26T08:52:31.449Z,15.22
2019-04-26T08:55:06.108Z,15.67
2019-04-26T08:57:42.365Z,15.81
2019-04-26T09:00:44.530Z,15.37
2019-04-26T09:03:32.724Z,15.85
2019-04-26T09:06:18.928Z,16.31
2019-04-26T09:08:52.254Z,16.52
2019-04-26T09:11:30.161Z,15.23
2019-04-26T09:14:01.393Z,14.98
2019-04-26T09:16:33.799Z,15.31
2019-04-26T09:19:05.207Z,14.62
2019-04-26T09:22:02.817Z,15.33
2019-04-26T09:24:37.167Z,15.42
2019-04-26T09:27:25.828Z,15.06
2019-04-26T09:30:06.228Z,15.36
2019-04-26T09:32:58.223Z,15.11
2019-04-26T09:35:30.423Z,15.45
2019-04-26T09:38:01.422Z,14.83
2019-04-26T09:40:32.609Z,14.18
2019-04-26T09:43:15.237Z,14.32
2019-04-26T09:46:03.878Z,15.02
2019-04-26T09:48:51.829Z,14.47
2019-04-26T09:51:24.019Z,14.39
2019-04-26T09:53:56.043Z,14.79
2019-04-26T09:56:27.133Z,14.31
2019-04-26T09:59:01.447Z,14.13
2019-04-26T10:01:32.792Z,14.43
2019-04-26T10:04:05.128Z,14.13
2019-04-26T10:06:36.189Z,14.21
2019-04-26T10:09:17.286Z,14.19
2019-04-26T10:11:57.735Z,13.67
2019-04-26T10:14:36.642Z,14.21
2019-04-26T10:17:15.548Z,14.39
2019-04-26T10:19:50.317Z,13.90
2019-04-26T10:22:23.073Z,14.30
2019-04-26T10:24:54.148Z,14.23
2019-04-26T10:27:26.134Z,13.69
2019-04-26T10:30:07.395Z,13.91
2019-04-26T10:32:29.771Z,13.60
2019-04-26T10:35:00.765Z,13.59
2019-04-26T10:37:39.335Z,13.14
2019-04-26T10:40:04.920Z,13.14
2019-04-26T10:42:37.546Z,13.65
2019-04-26T10:45:14.387Z,13.21
2019-04-26T10:47:43.312Z,13.58
2019-04-26T10:50:15.531Z,12.84
2019-04-26T10:52:54.373Z,12.86
2019-04-26T10:55:50.214Z,12.59
2019-04-26T10:58:37.805Z,12.50
2019-04-26T11:01:13.252Z,12.59
2019-04-26T11:03:44.559Z,12.25
2019-04-26T11:06:15.701Z,13.13
2019-04-26T11:08:46.755Z,12.76
2019-04-26T11:11:17.846Z,13.40
2019-04-26T11:13:49.161Z,12.55
2019-04-26T11:16:20.412Z,12.81
2019-04-26T11:18:51.749Z,12.94
2019-04-26T11:21:22.811Z,12.93
2019-04-26T11:23:54.082Z,13.05
2019-04-26T11:26:25.071Z,12.87
2019-04-26T11:28:57.214Z,13.04
2019-04-26T11:31:29.279Z,12.50
2019-04-26T11:34:05.342Z,12.66
2019-04-26T11:36:33.053Z,12.79
2019-04-26T11:39:09.401Z,12.41
2019-04-26T11:41:41.334Z,12.23
2019-04-26T11:44:12.514Z,13.08
2019-04-26T11:46:44.879Z,12.68
2019-04-26T11:49:16.529Z,13.13
2019-04-26T11:51:47.503Z,13.16
2019-04-26T11:54:20.779Z,12.93
2019-04-26T11:56:51.244Z,12.73
2019-04-26T11:59:22.261Z,12.32
2019-04-26T12:01:53.303Z,12.59
2019-04-26T12:04:44.953Z,11.74
2019-04-26T12:07:22.608Z,11.85
2019-04-26T12:09:55.237Z,11.54
2019-04-26T12:12:26.263Z,11.95
2019-04-26T12:14:57.350Z,12.20
2019-04-26T12:17:31.163Z,12.06
2019-04-26T12:20:01.026Z,12.36
2019-04-26T12:22:32.013Z,11.74
2019-04-26T12:25:03.434Z,12.44
2019-04-26T12:27:35.892Z,11.99
2019-04-26T12:30:08.131Z,11.84
2019-04-26T12:32:39.200Z,11.90
2019-04-26T12:35:10.347Z,11.09
2019-04-26T12:37:41.411Z,12.11
2019-04-26T12:40:12.893Z,11.78
2019-04-26T12:42:47.330Z,11.69
2019-04-26T12:45:52.461Z,11.65
2019-04-26T12:48:24.867Z,12.07
2019-04-26T12:50:55.943Z,11.64
2019-04-26T12:53:31.467Z,11.54
2019-04-26T12:55:59.837Z,11.71
2019-04-26T12:58:30.840Z,11.72
2019-04-26T13:01:02.205Z,12.14
2019-04-26T13:03:33.335Z,11.76
2019-04-26T13:06:04.362Z,12.06
2019-04-26T13:08:35.544Z,11.98
2019-04-26T13:11:28.113Z,11.06
2019-04-26T13:14:03.743Z,11.84
2019-04-26T13:16:50.649Z,10.99
2019-04-26T13:19:21.638Z,11.32
2019-04-26T13:21:52.734Z,11.07
2019-04-26T13:24:23.741Z,11.11
2019-04-26T13:26:54.841Z,11.04
2019-04-26T13:29:27.298Z,10.71
2019-04-26T13:31:58.730Z,11.12
2019-04-26T13:34:33.348Z,10.56
2019-04-26T13:37:03.270Z,10.63
2019-04-26T13:39:35.081Z,10.28
2019-04-26T13:42:09.415Z,10.52
2019-04-26T13:44:55.232Z,10.45
2019-04-26T13:47:43.835Z,10.77
2019-04-26T13:50:28.350Z,10.57
2019-04-26T13:52:59.487Z,10.57
2019-04-26T13:55:30.535Z,11.01
2019-04-26T13:58:01.997Z,10.47
2019-04-26T14:00:33.325Z,10.75
2019-04-26T14:03:04.513Z,10.95
2019-04-26T14:05:35.637Z,10.71
2019-04-26T14:08:06.705Z,10.81
2019-04-26T14:10:37.680Z,10.68
2019-04-26T14:13:08.661Z,10.93
2019-04-26T14:15:44.044Z,10.04
2019-04-26T14:18:13.632Z,10.71
2019-04-26T14:20:44.713Z,11.40
2019-04-26T14:23:36.779Z,11.01
2019-04-26T14:26:10.285Z,11.22
2019-04-26T14:28:42.157Z,10.62
2019-04-26T14:31:16.456Z,10.81
2019-04-26T14:33:46.349Z,11.00
2019-04-26T14:36:18.539Z,11.33
2019-04-26T14:38:49.822Z,11.35
2019-04-26T14:41:22.485Z,11.55
2019-04-26T14:43:56.695Z,11.55
2019-04-26T14:46:26.683Z,11.72
2019-04-26T14:49:02.089Z,11.41
2019-04-26T14:51:30.355Z,11.31
2019-04-26T14:54:01.395Z,11.16
2019-04-26T14:56:32.430Z,10.55
2019-04-26T14:59:08.027Z,10.57
2019-04-26T15:01:58.769Z,10.74
2019-04-26T15:04:44.989Z,10.71
2019-04-26T15:07:15.989Z,11.47
2019-04-26T15:09:46.975Z,11.20
2019-04-26T15:12:17.952Z,11.69
2019-04-26T15:14:49.390Z,11.47
2019-04-26T15:17:24.845Z,11.82
2019-04-26T15:19:54.623Z,11.55
2019-04-26T15:22:25.641Z,10.47
2019-04-26T15:24:56.641Z,10.73
2019-04-26T15:27:32.227Z,10.99
2019-04-26T15:30:04.152Z,10.67
2019-04-26T15:32:35.336Z,11.16
2019-04-26T15:35:06.833Z,10.55
2019-04-26T15:37:37.975Z,10.27
2019-04-26T15:40:35.078Z,10.31
2019-04-26T15:43:33.826Z,10.95
2019-04-26T15:46:12.492Z,10.59
2019-04-26T15:49:05.749Z,11.04
2019-04-26T15:51:37.376Z,10.89
2019-04-26T15:54:08.436Z,11.03
2019-04-26T15:56:39.470Z,11.09
2019-04-26T15:59:10.443Z,10.83
2019-04-26T16:01:47.529Z,10.73
2019-04-26T16:04:17.382Z,10.63
2019-04-26T16:06:46.829Z,10.37
2019-04-26T16:09:19.741Z,10.95
2019-04-26T16:11:50.701Z,10.67
2019-04-26T16:14:24.884Z,10.81
2019-04-26T16:16:54.339Z,11.22
2019-04-26T16:19:26.660Z,10.90
2019-04-26T16:21:58.050Z,10.89
2019-04-26T16:24:29.199Z,11.67
2019-04-26T16:27:00.253Z,11.47
2019-04-26T16:29:46.830Z,11.34
2019-04-26T16:32:52.625Z,11.18
2019-04-26T16:35:27.992Z,11.50
2019-04-26T16:37:59.816Z,11.92
2019-04-26T16:40:28.476Z,11.40
2019-04-26T16:42:59.822Z,11.44
2019-04-26T16:45:32.673Z,11.71
2019-04-26T16:48:03.641Z,12.14
2019-04-26T16:50:43.777Z,11.95
2019-04-26T16:53:33.674Z,11.11
2019-04-26T16:55:48.867Z,11.18
2019-04-26T16:58:12.916Z,11.69
2019-04-26T17:00:51.584Z,11.35
2019-04-26T17:03:16.882Z,12.19
2019-04-26T17:05:51.117Z,12.01
2019-04-26T17:08:20.873Z,12.25
2019-04-26T17:10:56.338Z,11.29
2019-04-26T17:13:29.816Z,11.38
2019-04-26T17:15:59.901Z,11.50
2019-04-26T17:18:32.326Z,11.76
2019-04-26T17:21:03.582Z,11.33
2019-04-26T17:23:44.561Z,11.13
2019-04-26T17:26:36.716Z,10.64
2019-04-26T17:29:08.024Z,11.31
2019-04-26T17:31:39.155Z,11.20
2019-04-26T17:34:10.276Z,11.10
2019-04-26T17:36:41.326Z,10.62
2019-04-26T17:39:16.942Z,11.12
2019-04-26T17:41:50.661Z,11.17
2019-04-26T17:44:20.374Z,11.43
2019-04-26T17:46:56.346Z,11.09
2019-04-26T17:49:27.375Z,11.03
2019-04-26T17:51:58.010Z,11.20
2019-04-26T17:54:43.785Z,11.28
2019-04-26T17:57:04.335Z,11.43
2019-04-26T17:59:36.827Z,11.27
2019-04-26T18:02:19.795Z,11.11
2019-04-26T18:04:42.464Z,11.49
2019-04-26T18:07:36.294Z,11.25
2019-04-26T18:09:46.853Z,11.54
2019-04-26T18:12:18.117Z,10.88
2019-04-26T18:14:49.171Z,11.15
2019-04-26T18:17:27.739Z,11.29
2019-04-26T18:20:12.970Z,11.40
2019-04-26T18:22:47.837Z,10.80
2019-04-26T18:25:19.101Z,11.23
2019-04-26T18:27:50.165Z,11.36
2019-04-26T18:30:21.683Z,11.46
2019-04-26T18:32:52.740Z,11.01
2019-04-26T18:35:23.804Z,11.25
2019-04-26T18:37:54.853Z,11.47
2019-04-26T18:40:25.961Z,11.41
2019-04-26T18:42:56.984Z,11.57
2019-04-26T18:45:30.033Z,11.49
2019-04-26T18:48:01.952Z,11.16
2019-04-26T18:50:36.499Z,11.16
2019-04-26T18:53:25.212Z,11.42
2019-04-26T18:55:59.332Z,11.37
2019-04-26T18:58:30.293Z,11.17
2019-04-26T19:01:05.213Z,11.39
2019-04-26T19:03:35.531Z,11.29
2019-04-26T19:06:06.569Z,10.92
2019-04-26T19:08:45.802Z,11.31
2019-04-26T19:11:11.858Z,11.19
2019-04-26T19:14:02.146Z,11.31
2019-04-26T19:16:46.351Z,11.43
2019-04-26T19:19:26.020Z,11.05
2019-04-26T19:22:01.558Z,11.19
2019-04-26T19:24:33.319Z,11.23
2019-04-26T19:27:04.365Z,11.44
2019-04-26T19:29:36.304Z,11.50
2019-04-26T19:32:08.001Z,11.10
2019-04-26T19:34:39.115Z,11.37
2019-04-26T19:37:10.169Z,11.27
2019-04-26T19:39:42.745Z,11.46
2019-04-26T19:42:13.970Z,11.32
2019-04-26T19:44:45.119Z,11.16
2019-04-26T19:47:26.801Z,11.46
2019-04-26T19:50:10.185Z,11.42
2019-04-26T19:52:52.945Z,11.06
2019-04-26T19:55:36.999Z,11.28
2019-04-26T19:58:16.153Z,11.37
2019-04-26T20:00:46.700Z,11.28
2019-04-26T20:03:16.947Z,11.09
2019-04-26T20:05:48.293Z,11.10
2019-04-26T20:08:19.458Z,11.00
2019-04-26T20:10:52.099Z,11.18
2019-04-26T20:13:24.045Z,11.17
2019-04-26T20:15:57.310Z,11.22
2019-04-26T20:18:27.862Z,10.93
2019-04-26T20:20:58.981Z,11.00
2019-04-26T20:23:31.702Z,11.04
2019-04-26T20:26:07.155Z,10.93
2019-04-26T20:28:37.450Z,10.84
2019-04-26T20:31:25.378Z,11.22
2019-04-26T20:33:56.562Z,10.91
2019-04-26T20:36:27.565Z,11.17
2019-04-26T20:38:58.684Z,11.33
2019-04-26T20:41:29.702Z,11.35
2019-04-26T20:44:07.038Z,11.04
2019-04-26T20:46:34.366Z,11.13
2019-04-26T20:49:09.086Z,10.96
2019-04-26T20:51:40.755Z,10.93
2019-04-26T20:54:16.214Z,11.06
2019-04-26T20:56:46.202Z,11.24
2019-04-26T20:59:20.178Z,11.21
2019-04-26T21:02:02.718Z,11.32
2019-04-26T21:04:34.931Z,11.20
2019-04-26T21:06:55.443Z,11.04
2019-04-26T21:09:26.544Z,11.24
2019-04-26T21:11:57.541Z,11.16
2019-04-26T21:14:28.653Z,11.12
2019-04-26T21:16:59.774Z,11.22
2019-04-26T21:19:32.750Z,11.29
2019-04-26T21:22:03.757Z,11.18
2019-04-26T21:24:37.124Z,11.23
2019-04-26T21:27:29.345Z,11.11
2019-04-26T21:30:21.525Z,11.07
2019-04-26T21:33:10.815Z,10.50
2019-04-26T21:36:05.829Z,10.56
2019-04-26T21:39:05.862Z,10.71
2019-04-26T21:41:49.388Z,10.83
2019-04-26T21:44:20.372Z,10.54
2019-04-26T21:46:56.267Z,10.84
2019-04-26T21:49:24.366Z,10.91
2019-04-26T21:51:55.589Z,11.03
2019-04-26T21:54:26.566Z,11.22
2019-04-26T21:56:57.582Z,10.91
2019-04-26T21:59:28.753Z,11.04
2019-04-26T22:01:59.929Z,11.03
2019-04-26T22:04:34.169Z,11.05
2019-04-26T22:07:07.598Z,11.03
2019-04-26T22:09:47.916Z,11.06
2019-04-26T22:12:18.918Z,10.94
2019-04-26T22:15:00.680Z,10.90
2019-04-26T22:17:34.815Z,11.08
2019-04-26T22:20:37.704Z,10.99
2019-04-26T22:23:26.042Z,10.62
2019-04-26T22:26:00.072Z,11.00
2019-04-26T22:28:31.292Z,11.05
2019-04-26T22:31:06.878Z,11.18
2019-04-26T22:33:35.741Z,11.16
2019-04-26T22:36:07.226Z,10.88
2019-04-26T22:38:38.366Z,11.12
2019-04-26T22:41:09.355Z,10.85
2019-04-26T22:43:54.013Z,11.14
2019-04-26T22:46:47.283Z,11.14
2019-04-26T22:49:16.074Z,11.17
2019-04-26T22:51:47.183Z,11.18
2019-04-26T22:54:18.212Z,10.95
2019-04-26T22:56:49.354Z,10.91
2019-04-26T22:59:20.507Z,11.04
2019-04-26T23:01:53.412Z,10.92
2019-04-26T23:04:26.503Z,11.15
2019-04-26T23:06:57.054Z,11.39
2019-04-26T23:09:28.132Z,11.22
2019-04-26T23:12:06.399Z,11.15
2019-04-26T23:14:56.447Z,10.72
2019-04-26T23:17:44.006Z,11.17
2019-04-26T23:20:43.035Z,11.17
2019-04-26T23:23:14.165Z,11.11
2019-04-26T23:25:45.177Z,11.31
2019-04-26T23:28:16.151Z,11.43
2019-04-26T23:30:47.306Z,11.18
2019-04-26T23:33:18.283Z,11.21
2019-04-26T23:35:49.386Z,11.26
2019-04-26T23:38:20.368Z,10.89
2019-04-26T23:40:51.532Z,11.36
2019-04-26T23:43:25.532Z,11.31
2019-04-26T23:45:55.528Z,11.37
2019-04-26T23:48:26.673Z,10.76
2019-04-26T23:50:59.918Z,10.55
2019-04-26T23:53:30.305Z,10.26
2019-04-26T23:56:01.289Z,10.86
2019-04-26T23:58:32.251Z,11.04
